Time,TemperatureF,DewpointF,PressureIn,WindDirection,WindDirectionDegrees,WindSpeedMPH,WindSpeedGustMPH,Humidity,HourlyPrecipIn,Conditions,Clouds,dailyrainin,SoftwareType,DateUTC
2013-06-11 00:01:00,68.4,68.4,29.92,SSW,199,0.0,0.0,100,0.00,,CLR,0.42,VWS V14.01,2013-06-11 04:01:00,
2013-06-11 00:06:00,68.6,68.6,29.92,SSW,199,0.0,0.0,100,0.00,,CLR,0.00,VWS V14.01,2013-06-11 04:06:00,
2013-06-11 00:11:00,68.8,68.8,29.92,SSW,199,0.0,0.0,100,0.00,,CLR,0.00,VWS V14.01,2013-06-11 04:11:00,
2013-06-11 00:16:00,68.9,68.9,29.92,SSW,199,0.0,0.0,100,0.00,,CLR,0.00,VWS V14.01,2013-06-11 04:16:00,
2013-06-11 00:21:00,69.1,69.1,29.92,SSW,199,0.0,0.0,100,0.00,,CLR,0.00,VWS V14.01,2013-06-11 04:21:00,
2013-06-11 00:26:00,69.3,69.3,29.92,SSW,199,0.0,0.0,100,0.00,,CLR,0.00,VWS V14.01,2013-06-11 04:26:00,
2013-06-11 00:32:00,69.3,69.3,29.91,SSW,199,0.0,0.0,100,0.00,,CLR,0.00,VWS V14.01,2013-06-11 04:32:00,
2013-06-11 00:37:00,69.4,69.4,29.91,SSW,199,0.0,0.0,100,0.00,,CLR,0.00,VWS V14.01,2013-06-11 04:37:00,
2013-06-11 00:42:00,69.4,69.4,29.91,SSW,199,0.0,0.0,100,0.00,,CLR,0.00,VWS V14.01,2013-06-11 04:42:00,
2013-06-11 00:47:00,69.4,69.4,29.91,SSW,199,0.0,0.0,100,0.00,,FEW120,0.00,VWS V14.01,2013-06-11 04:47:00,
2013-06-11 00:52:00,69.4,69.4,29.91,SSW,199,0.0,0.0,100,0.00,,FEW120,0.00,VWS V14.01,2013-06-11 04:52:00,
2013-06-11 00:57:00,69.4,69.4,29.91,SSW,199,0.0,0.0,100,0.00,,FEW120,0.00,VWS V14.01,2013-06-11 04:57:00,
2013-06-11 01:02:00,69.4,69.4,29.90,SSW,199,0.0,0.0,100,0.00,,OVC110,0.00,VWS V14.01,2013-06-11 05:02:00,
2013-06-11 01:07:00,69.4,69.4,29.90,SSW,199,0.0,0.0,100,0.00,,OVC110,0.00,VWS V14.01,2013-06-11 05:07:00,
2013-06-11 01:12:00,69.4,69.4,29.90,SSW,199,0.0,0.0,100,0.00,,OVC110,0.00,VWS V14.01,2013-06-11 05:12:00,
2013-06-11 01:17:00,69.6,69.6,29.90,SSW,199,0.0,0.0,100,0.00,,OVC110,0.00,VWS V14.01,2013-06-11 05:17:00,
2013-06-11 01:22:00,69.6,69.6,29.90,SSW,199,0.0,0.0,100,0.00,,OVC110,0.00,VWS V14.01,2013-06-11 05:22:00,
2013-06-11 01:27:00,69.6,69.6,29.90,SSW,199,0.0,0.0,100,0.00,,OVC110,0.00,VWS V14.01,2013-06-11 05:27:00,
2013-06-11 01:32:00,69.8,69.8,29.90,SSW,199,0.0,0.0,100,0.00,,OVC110,0.00,VWS V14.01,2013-06-11 05:32:00,
2013-06-11 01:37:00,69.8,69.8,29.90,SSW,199,0.0,0.0,100,0.00,,OVC110,0.00,VWS V14.01,2013-06-11 05:37:00,
2013-06-11 01:42:00,69.9,69.9,29.90,SSW,199,0.0,0.0,100,0.00,,OVC110,0.00,VWS V14.01,2013-06-11 05:42:00,
2013-06-11 01:47:00,69.9,69.9,29.91,SSW,199,0.0,0.0,100,0.00,,OVC007,0.00,VWS V14.01,2013-06-11 05:47:00,
2013-06-11 01:52:00,70.1,70.1,29.91,SSW,199,0.0,0.0,100,0.00,,OVC007,0.00,VWS V14.01,2013-06-11 05:52:00,
2013-06-11 01:57:00,70.1,70.1,29.91,SSW,199,0.0,0.0,100,0.00,,OVC007,0.00,VWS V14.01,2013-06-11 05:57:00,
2013-06-11 02:02:00,70.1,70.1,29.90,SSW,199,0.0,0.0,100,0.00,,OVC007,0.00,VWS V14.01,2013-06-11 06:02:00,
2013-06-11 02:07:00,70.1,70.1,29.90,SSW,199,0.0,0.0,100,0.00,,OVC007,0.00,VWS V14.01,2013-06-11 06:07:00,
2013-06-11 02:12:00,70.3,70.3,29.90,SSW,199,0.0,0.0,100,0.00,,OVC007,0.00,VWS V14.01,2013-06-11 06:12:00,
2013-06-11 02:17:00,70.3,70.3,29.90,SSW,199,0.0,0.0,100,0.00,,OVC007,0.00,VWS V14.01,2013-06-11 06:17:00,
2013-06-11 02:22:00,70.3,70.3,29.90,SSW,199,0.0,0.0,100,0.00,,OVC007,0.00,VWS V14.01,2013-06-11 06:22:00,
2013-06-11 02:27:00,70.4,70.4,29.90,SSW,199,0.0,0.0,100,0.00,,OVC007,0.00,VWS V14.01,2013-06-11 06:27:00,
2013-06-11 02:32:00,70.4,70.4,29.90,SSW,199,0.0,0.0,100,0.00,,OVC007,0.00,VWS V14.01,2013-06-11 06:32:00,
2013-06-11 02:37:00,70.6,70.6,29.90,SSW,199,0.0,0.0,100,0.00,,OVC007,0.00,VWS V14.01,2013-06-11 06:37:00,
2013-06-11 02:42:00,70.6,70.6,29.90,SSW,199,0.0,0.0,100,0.00,,OVC007,0.00,VWS V14.01,2013-06-11 06:42:00,
2013-06-11 02:47:00,70.6,70.6,29.89,SSW,199,0.0,0.0,100,0.00,,OVC100,0.00,VWS V14.01,2013-06-11 06:47:00,
2013-06-11 02:52:00,70.6,70.6,29.89,SSW,199,0.0,0.0,100,0.00,,OVC100,0.00,VWS V14.01,2013-06-11 06:52:00,
2013-06-11 02:57:00,70.8,70.8,29.89,SSW,199,0.0,0.0,100,0.00,,OVC100,0.00,VWS V14.01,2013-06-11 06:57:00,
2013-06-11 03:02:00,70.8,70.8,29.89,SSW,199,0.0,0.0,100,0.00,,OVC034,0.00,VWS V14.01,2013-06-11 07:02:00,
2013-06-11 03:07:00,70.8,70.5,29.89,SSW,199,0.0,0.0,99,0.00,,OVC034,0.00,VWS V14.01,2013-06-11 07:07:00,
2013-06-11 03:12:00,70.8,70.5,29.89,SSW,199,0.0,0.0,99,0.00,,OVC034,0.00,VWS V14.01,2013-06-11 07:12:00,
2013-06-11 03:17:00,70.8,70.5,29.89,SSW,199,0.0,0.0,99,0.00,,OVC034,0.00,VWS V14.01,2013-06-11 07:17:00,
2013-06-11 03:22:00,70.9,70.6,29.89,SSW,199,0.0,0.0,99,0.00,,OVC034,0.00,VWS V14.01,2013-06-11 07:22:00,
2013-06-11 03:27:00,70.9,70.6,29.89,SSW,199,0.0,0.0,99,0.00,,OVC034,0.00,VWS V14.01,2013-06-11 07:27:00,
2013-06-11 03:32:00,70.9,70.6,29.89,SSW,199,0.0,0.0,99,0.00,,OVC034,0.00,VWS V14.01,2013-06-11 07:32:00,
2013-06-11 03:37:00,70.9,70.6,29.89,SSW,199,0.0,0.0,99,0.00,,OVC034,0.00,VWS V14.01,2013-06-11 07:37:00,
2013-06-11 03:42:00,71.1,70.8,29.89,SSW,199,0.0,0.0,99,0.00,,OVC034,0.00,VWS V14.01,2013-06-11 07:42:00,
2013-06-11 03:47:00,71.1,70.8,29.89,SSW,199,0.0,0.0,99,0.00,,OVC015,0.00,VWS V14.01,2013-06-11 07:47:00,
2013-06-11 03:52:00,71.1,70.5,29.89,SSW,199,0.0,0.0,98,0.00,,OVC015,0.00,VWS V14.01,2013-06-11 07:52:00,
2013-06-11 03:57:00,71.1,70.5,29.89,SSW,199,0.0,0.0,98,0.00,,OVC015,0.00,VWS V14.01,2013-06-11 07:57:00,
2013-06-11 04:02:00,71.1,70.5,29.89,SSW,199,0.0,0.0,98,0.00,,OVC015,0.00,VWS V14.01,2013-06-11 08:02:00,
2013-06-11 04:07:00,71.1,70.5,29.89,SSW,199,0.0,0.0,98,0.00,,OVC015,0.00,VWS V14.01,2013-06-11 08:07:00,
2013-06-11 04:12:00,71.1,70.5,29.89,SSW,199,0.0,0.0,98,0.00,,OVC015,0.00,VWS V14.01,2013-06-11 08:12:00,
2013-06-11 04:17:00,71.1,70.5,29.88,SSW,199,0.0,0.0,98,0.00,,OVC015,0.00,VWS V14.01,2013-06-11 08:17:00,
2013-06-11 04:22:00,71.1,70.5,29.88,SSW,199,0.0,0.0,98,0.00,,OVC015,0.00,VWS V14.01,2013-06-11 08:22:00,
2013-06-11 04:27:00,71.1,70.5,29.88,SSW,199,0.0,0.0,98,0.00,,OVC015,0.00,VWS V14.01,2013-06-11 08:27:00,
2013-06-11 04:32:00,71.1,70.5,29.88,SSW,199,0.0,0.0,98,0.00,,OVC015,0.00,VWS V14.01,2013-06-11 08:32:00,
2013-06-11 04:37:00,71.1,70.5,29.88,SSW,199,0.0,0.0,98,0.00,,OVC015,0.00,VWS V14.01,2013-06-11 08:37:00,
2013-06-11 04:42:00,71.1,70.5,29.88,SSW,199,0.0,0.0,98,0.00,,OVC015,0.00,VWS V14.01,2013-06-11 08:42:00,
2013-06-11 04:47:00,70.9,70.6,29.88,SSW,199,0.0,0.0,99,0.00,,-RA,0.00,VWS V14.01,2013-06-11 08:47:00,
2013-06-11 04:52:00,70.9,70.6,29.88,SSW,199,0.0,0.0,99,0.00,,-RA,0.00,VWS V14.01,2013-06-11 08:52:00,
2013-06-11 04:57:00,70.9,70.6,29.88,SSW,199,0.0,0.0,99,0.00,,-RA,0.00,VWS V14.01,2013-06-11 08:57:00,
2013-06-11 05:02:00,70.9,70.9,29.88,SSW,199,0.0,0.0,100,0.02,,-RA,0.02,VWS V14.01,2013-06-11 09:02:00,
2013-06-11 05:07:00,70.8,70.8,29.88,SSW,199,0.0,0.0,100,0.04,,-RA,0.04,VWS V14.01,2013-06-11 09:07:00,
2013-06-11 05:12:00,70.8,70.8,29.88,SSW,199,0.0,0.0,100,0.06,,-RA,0.06,VWS V14.01,2013-06-11 09:12:00,
2013-06-11 05:17:00,70.8,70.8,29.88,SSW,199,0.0,0.0,100,0.06,,-RA,0.06,VWS V14.01,2013-06-11 09:17:00,
2013-06-11 05:22:00,70.8,70.8,29.88,SSW,199,0.0,0.0,100,0.06,,-RA,0.06,VWS V14.01,2013-06-11 09:22:00,
2013-06-11 05:27:00,70.8,70.8,29.88,SSW,199,0.0,0.0,100,0.06,,-RA,0.06,VWS V14.01,2013-06-11 09:27:00,
2013-06-11 05:32:00,70.8,70.8,29.88,SSW,199,0.0,0.0,100,0.06,,-RA,0.06,VWS V14.01,2013-06-11 09:32:00,
2013-06-11 05:37:00,70.6,70.6,29.88,SSW,199,0.0,0.0,100,0.06,,-RA,0.06,VWS V14.01,2013-06-11 09:37:00,
2013-06-11 05:42:00,70.6,70.6,29.88,SSW,199,0.0,0.0,100,0.06,,-RA,0.06,VWS V14.01,2013-06-11 09:42:00,
2013-06-11 05:47:00,70.6,70.6,29.88,SSW,199,0.0,0.0,100,0.06,,OVC100,0.06,VWS V14.01,2013-06-11 09:47:00,
2013-06-11 05:52:00,70.6,70.6,29.88,SSW,199,0.0,0.0,100,0.06,,OVC100,0.06,VWS V14.01,2013-06-11 09:52:00,
2013-06-11 05:57:00,70.4,70.4,29.88,SSW,199,0.0,0.0,100,0.06,,OVC100,0.06,VWS V14.01,2013-06-11 09:57:00,
2013-06-11 06:02:00,70.4,70.4,29.89,SSW,199,0.0,0.0,100,0.04,,OVC100,0.06,VWS V14.01,2013-06-11 10:02:00,
2013-06-11 06:07:00,70.3,70.3,29.89,SSW,199,0.0,0.0,100,0.02,,OVC100,0.06,VWS V14.01,2013-06-11 10:07:00,
2013-06-11 06:12:00,70.3,70.3,29.89,SSW,199,0.0,0.0,100,0.00,,OVC100,0.06,VWS V14.01,2013-06-11 10:12:00,
2013-06-11 06:17:00,70.3,70.3,29.89,SSW,199,0.0,0.0,100,0.00,,OVC100,0.06,VWS V14.01,2013-06-11 10:17:00,
2013-06-11 06:22:00,70.1,70.1,29.89,SSW,199,0.0,0.0,100,0.00,,OVC100,0.06,VWS V14.01,2013-06-11 10:22:00,
2013-06-11 06:27:00,69.9,69.9,29.89,SSW,199,0.0,0.0,100,0.00,,OVC100,0.06,VWS V14.01,2013-06-11 10:27:00,
2013-06-11 06:32:00,69.9,69.9,29.89,SSW,199,0.0,0.0,100,0.00,,OVC100,0.06,VWS V14.01,2013-06-11 10:32:00,
2013-06-11 06:37:00,69.8,69.8,29.89,SSW,199,0.0,0.0,100,0.00,,OVC100,0.06,VWS V14.01,2013-06-11 10:37:00,
2013-06-11 06:42:00,69.8,69.8,29.89,SSW,199,0.0,0.0,100,0.00,,OVC100,0.06,VWS V14.01,2013-06-11 10:42:00,
2013-06-11 06:47:00,69.8,69.8,29.90,SSW,199,0.0,0.0,100,0.00,,OVC080,0.06,VWS V14.01,2013-06-11 10:47:00,
2013-06-11 06:52:00,69.6,69.6,29.90,SSW,199,0.0,0.0,100,0.00,,OVC080,0.06,VWS V14.01,2013-06-11 10:52:00,
2013-06-11 06:57:00,69.6,69.6,29.90,SSW,199,0.0,0.0,100,0.00,,OVC080,0.06,VWS V14.01,2013-06-11 10:57:00,
2013-06-11 07:02:00,69.4,69.4,29.90,SSW,199,0.0,0.0,100,0.00,,OVC080,0.06,VWS V14.01,2013-06-11 11:02:00,
2013-06-11 07:07:00,69.4,69.4,29.90,SSW,199,0.0,0.0,100,0.00,,OVC080,0.06,VWS V14.01,2013-06-11 11:07:00,
2013-06-11 07:12:00,69.4,69.4,29.90,SSW,199,0.0,0.0,100,0.00,,OVC080,0.06,VWS V14.01,2013-06-11 11:12:00,
2013-06-11 07:17:00,69.6,69.6,29.90,SSW,199,0.0,0.0,100,0.00,,OVC080,0.06,VWS V14.01,2013-06-11 11:17:00,
2013-06-11 07:22:00,69.6,69.6,29.90,SSW,199,0.0,0.0,100,0.00,,OVC080,0.06,VWS V14.01,2013-06-11 11:22:00,
2013-06-11 07:27:00,69.6,69.6,29.90,SSW,199,0.0,0.0,100,0.00,,OVC080,0.06,VWS V14.01,2013-06-11 11:27:00,
2013-06-11 07:32:00,69.8,69.8,29.91,SSW,199,0.0,0.0,100,0.00,,OVC080,0.06,VWS V14.01,2013-06-11 11:32:00,
2013-06-11 07:37:00,69.9,69.9,29.91,SSW,199,0.0,0.0,100,0.00,,OVC080,0.06,VWS V14.01,2013-06-11 11:37:00,
2013-06-11 07:42:00,70.1,70.1,29.91,SSW,199,0.0,0.0,100,0.00,,OVC080,0.06,VWS V14.01,2013-06-11 11:42:00,
2013-06-11 07:47:00,70.3,70.3,29.92,SSW,199,0.0,0.0,100,0.00,,,0.06,VWS V14.01,2013-06-11 11:47:00,
2013-06-11 07:52:00,70.4,70.4,29.92,SSW,199,0.0,0.0,100,0.00,,,0.06,VWS V14.01,2013-06-11 11:52:00,
2013-06-11 07:57:00,70.6,70.6,29.92,SSW,199,0.0,0.0,100,0.00,,,0.06,VWS V14.01,2013-06-11 11:57:00,
2013-06-11 08:02:00,70.8,70.8,29.92,SSW,199,0.0,0.0,100,0.00,,,0.06,VWS V14.01,2013-06-11 12:02:00,
2013-06-11 08:07:00,70.9,70.9,29.92,SSW,199,0.0,0.0,100,0.00,,,0.06,VWS V14.01,2013-06-11 12:07:00,
2013-06-11 08:12:00,71.1,71.1,29.92,SSW,199,0.0,0.0,100,0.00,,,0.06,VWS V14.01,2013-06-11 12:12:00,
2013-06-11 08:17:00,71.1,71.1,29.92,SSW,199,0.0,0.0,100,0.00,,,0.06,VWS V14.01,2013-06-11 12:17:00,
2013-06-11 08:22:00,71.3,71.3,29.92,SSW,199,0.0,0.0,100,0.00,,,0.06,VWS V14.01,2013-06-11 12:22:00,
2013-06-11 08:27:00,71.5,71.5,29.92,SSW,199,0.0,0.0,100,0.00,,,0.06,VWS V14.01,2013-06-11 12:27:00,
2013-06-11 08:32:00,71.6,71.6,29.93,SSW,199,0.0,0.0,100,0.00,,,0.06,VWS V14.01,2013-06-11 12:32:00,
2013-06-11 08:37:00,71.8,71.8,29.93,SSW,199,0.0,0.0,100,0.00,,,0.06,VWS V14.01,2013-06-11 12:37:00,
2013-06-11 08:42:00,72.0,72.0,29.93,SSW,199,0.0,0.0,100,0.00,,,0.06,VWS V14.01,2013-06-11 12:42:00,
2013-06-11 08:47:00,72.1,72.1,29.93,SSW,199,0.0,0.0,100,0.00,,,0.06,VWS V14.01,2013-06-11 12:47:00,
2013-06-11 08:52:00,72.3,72.3,29.93,SSW,199,0.0,0.0,100,0.00,,,0.06,VWS V14.01,2013-06-11 12:52:00,
2013-06-11 08:57:00,72.5,72.5,29.93,SSW,199,0.0,0.0,100,0.00,,,0.06,VWS V14.01,2013-06-11 12:57:00,
2013-06-11 09:02:00,72.7,72.7,29.92,SSW,199,0.0,0.0,100,0.00,,,0.06,VWS V14.01,2013-06-11 13:02:00,
2013-06-11 09:07:00,72.8,72.8,29.92,SSW,199,0.0,0.0,100,0.00,,,0.06,VWS V14.01,2013-06-11 13:07:00,
2013-06-11 09:12:00,73.0,73.0,29.92,SSW,199,0.0,0.0,100,0.00,,,0.06,VWS V14.01,2013-06-11 13:12:00,
2013-06-11 09:17:00,73.3,73.3,29.93,SSW,197,0.0,0.0,100,0.00,,,0.06,VWS V14.01,2013-06-11 13:17:00,
2013-06-11 09:22:00,73.3,73.3,29.93,SSW,197,0.0,0.0,100,0.00,,,0.06,VWS V14.01,2013-06-11 13:22:00,
2013-06-11 09:27:00,73.5,73.2,29.93,NNW,328,0.0,4.0,99,0.00,,,0.06,VWS V14.01,2013-06-11 13:27:00,
2013-06-11 09:32:00,73.9,72.7,29.93,SSW,212,4.0,4.0,96,0.00,,,0.06,VWS V14.01,2013-06-11 13:32:00,
2013-06-11 09:37:00,74.0,72.2,29.93,West,277,0.0,3.0,94,0.00,,,0.06,VWS V14.01,2013-06-11 13:37:00,
2013-06-11 09:42:00,74.2,72.4,29.93,West,266,0.0,4.0,94,0.00,,,0.06,VWS V14.01,2013-06-11 13:42:00,
2013-06-11 09:47:00,74.6,72.4,29.93,NW,313,2.0,3.0,93,0.00,,OVC015,0.06,VWS V14.01,2013-06-11 13:47:00,
2013-06-11 09:52:00,74.6,71.5,29.93,West,260,0.0,1.0,90,0.00,,OVC015,0.06,VWS V14.01,2013-06-11 13:52:00,
2013-06-11 09:57:00,74.7,71.6,29.93,WNW,302,0.0,1.0,90,0.00,,OVC015,0.06,VWS V14.01,2013-06-11 13:57:00,
2013-06-11 10:02:00,74.9,71.8,29.92,South,182,0.0,0.0,90,0.00,,OVC015,0.06,VWS V14.01,2013-06-11 14:02:00,
2013-06-11 10:07:00,75.3,71.8,29.92,WNW,301,0.0,1.0,89,0.00,,OVC015,0.06,VWS V14.01,2013-06-11 14:07:00,
2013-06-11 10:12:00,75.4,71.9,29.92,SW,232,0.0,0.0,89,0.00,,OVC015,0.06,VWS V14.01,2013-06-11 14:12:00,
2013-06-11 10:17:00,76.0,72.2,29.92,WNW,286,0.0,0.0,88,0.00,,OVC015,0.06,VWS V14.01,2013-06-11 14:17:00,
2013-06-11 10:22:00,76.1,71.6,29.92,WNW,284,0.0,0.0,86,0.00,,OVC015,0.06,VWS V14.01,2013-06-11 14:22:00,
2013-06-11 10:27:00,76.3,72.2,29.92,West,272,0.0,0.0,87,0.00,,OVC015,0.06,VWS V14.01,2013-06-11 14:27:00,
2013-06-11 10:32:00,76.5,72.3,29.92,West,272,0.0,0.0,87,0.00,,OVC015,0.06,VWS V14.01,2013-06-11 14:32:00,
2013-06-11 10:37:00,76.5,72.3,29.92,NW,313,4.0,4.0,87,0.00,,OVC015,0.06,VWS V14.01,2013-06-11 14:37:00,
2013-06-11 10:42:00,76.5,71.0,29.92,WNW,286,0.0,1.0,83,0.00,,OVC015,0.06,VWS V14.01,2013-06-11 14:42:00,
2013-06-11 10:47:00,76.8,70.2,29.92,WNW,301,0.0,4.0,80,0.00,,FEW011,0.06,VWS V14.01,2013-06-11 14:47:00,
2013-06-11 10:52:00,77.4,70.8,29.92,West,265,0.0,4.0,80,0.00,,FEW011,0.06,VWS V14.01,2013-06-11 14:52:00,
2013-06-11 10:57:00,77.7,70.7,29.92,WNW,297,1.0,1.0,79,0.00,,FEW011,0.06,VWS V14.01,2013-06-11 14:57:00,
2013-06-11 11:02:00,77.9,70.9,29.92,NW,317,0.0,2.0,79,0.00,,FEW011,0.06,VWS V14.01,2013-06-11 15:02:00,
2013-06-11 11:07:00,78.1,72.2,29.92,NW,306,3.0,3.0,82,0.00,,FEW011,0.06,VWS V14.01,2013-06-11 15:07:00,
2013-06-11 11:12:00,78.3,70.5,29.92,NNW,340,0.0,1.0,77,0.00,,FEW011,0.06,VWS V14.01,2013-06-11 15:12:00,
2013-06-11 11:17:00,78.5,70.7,29.92,WNW,289,1.0,1.0,77,0.00,,FEW011,0.06,VWS V14.01,2013-06-11 15:17:00,
2013-06-11 11:22:00,78.6,70.4,29.92,WSW,253,0.0,1.0,76,0.00,,FEW011,0.06,VWS V14.01,2013-06-11 15:22:00,
2013-06-11 11:27:00,79.2,71.4,29.92,NW,322,0.0,3.0,77,0.00,,FEW011,0.06,VWS V14.01,2013-06-11 15:27:00,
2013-06-11 11:32:00,79.4,71.2,29.92,NW,323,0.0,1.0,76,0.00,,FEW011,0.06,VWS V14.01,2013-06-11 15:32:00,
2013-06-11 11:37:00,79.6,70.6,29.92,NNE,30,0.0,0.0,74,0.00,,FEW011,0.06,VWS V14.01,2013-06-11 15:37:00,
2013-06-11 11:42:00,79.9,70.9,29.92,SE,135,0.0,0.0,74,0.00,,FEW011,0.06,VWS V14.01,2013-06-11 15:42:00,
2013-06-11 11:47:00,80.3,71.7,29.92,NNE,21,0.0,2.0,75,0.00,,CLR,0.06,VWS V14.01,2013-06-11 15:47:00,
2013-06-11 11:52:00,80.5,71.5,29.92,NW,304,0.0,1.0,74,0.00,,CLR,0.06,VWS V14.01,2013-06-11 15:52:00,
2013-06-11 11:57:00,80.5,70.7,29.92,NNE,24,0.0,0.0,72,0.00,,CLR,0.06,VWS V14.01,2013-06-11 15:57:00,
2013-06-11 12:02:00,80.7,71.7,29.91,NW,315,0.0,5.0,74,0.00,,CLR,0.06,VWS V14.01,2013-06-11 16:02:00,
2013-06-11 12:07:00,80.9,69.8,29.91,West,260,0.0,2.0,69,0.00,,CLR,0.06,VWS V14.01,2013-06-11 16:07:00,
2013-06-11 12:12:00,81.2,70.5,29.91,West,270,0.0,0.0,70,0.00,,CLR,0.06,VWS V14.01,2013-06-11 16:12:00,
2013-06-11 12:17:00,81.6,71.3,29.91,West,265,4.0,4.0,71,0.00,,CLR,0.06,VWS V14.01,2013-06-11 16:17:00,
2013-06-11 12:22:00,82.0,70.4,29.91,SW,221,1.0,1.0,68,0.00,,CLR,0.06,VWS V14.01,2013-06-11 16:22:00,
2013-06-11 12:27:00,82.2,70.2,29.91,WSW,257,0.0,3.0,67,0.00,,CLR,0.06,VWS V14.01,2013-06-11 16:27:00,
2013-06-11 12:32:00,82.4,70.3,29.91,West,267,0.0,0.0,67,0.00,,CLR,0.06,VWS V14.01,2013-06-11 16:32:00,
2013-06-11 12:37:00,82.4,69.5,29.91,NE,34,1.0,1.0,65,0.00,,CLR,0.06,VWS V14.01,2013-06-11 16:37:00,
2013-06-11 12:42:00,82.6,70.5,29.91,NE,42,0.0,0.0,67,0.00,,CLR,0.06,VWS V14.01,2013-06-11 16:42:00,
2013-06-11 12:47:00,82.8,69.4,29.90,NW,309,0.0,1.0,64,0.00,,SCT047,0.06,VWS V14.01,2013-06-11 16:47:00,
2013-06-11 12:52:00,83.2,70.2,29.90,NNW,344,0.0,3.0,65,0.00,,SCT047,0.06,VWS V14.01,2013-06-11 16:52:00,
2013-06-11 12:57:00,83.6,70.6,29.90,NNW,338,0.0,0.0,65,0.00,,SCT047,0.06,VWS V14.01,2013-06-11 16:57:00,
2013-06-11 13:02:00,83.6,70.6,29.89,South,188,0.0,0.0,65,0.00,,SCT047,0.06,VWS V14.01,2013-06-11 17:02:00,
2013-06-11 13:07:00,83.4,71.3,29.89,West,275,0.0,0.0,67,0.00,,SCT047,0.06,VWS V14.01,2013-06-11 17:07:00,
2013-06-11 13:12:00,83.0,70.5,29.89,South,170,0.0,1.0,66,0.00,,SCT047,0.06,VWS V14.01,2013-06-11 17:12:00,
2013-06-11 13:17:00,83.2,70.2,29.89,WNW,302,0.0,1.0,65,0.00,,SCT047,0.06,VWS V14.01,2013-06-11 17:17:00,
2013-06-11 13:22:00,83.2,68.8,29.89,WNW,300,0.0,0.0,62,0.00,,SCT047,0.06,VWS V14.01,2013-06-11 17:22:00,
2013-06-11 13:27:00,83.2,70.2,29.89,SSE,163,0.0,0.0,65,0.00,,SCT047,0.06,VWS V14.01,2013-06-11 17:27:00,
2013-06-11 13:32:00,83.4,69.0,29.89,West,275,0.0,3.0,62,0.00,,SCT047,0.06,VWS V14.01,2013-06-11 17:32:00,
2013-06-11 13:37:00,83.8,69.9,29.89,WSW,258,0.0,0.0,63,0.00,,SCT047,0.06,VWS V14.01,2013-06-11 17:37:00,
2013-06-11 13:42:00,84.1,69.7,29.89,ESE,117,0.0,0.0,62,0.00,,SCT047,0.06,VWS V14.01,2013-06-11 17:42:00,
2013-06-11 13:47:00,84.7,70.2,29.89,SW,227,0.0,1.0,62,0.00,,SCT047,0.06,VWS V14.01,2013-06-11 17:47:00,
2013-06-11 13:52:00,85.3,69.8,29.89,WNW,293,0.0,0.0,60,0.00,,SCT047,0.06,VWS V14.01,2013-06-11 17:52:00,
2013-06-11 13:57:00,85.3,69.4,29.89,NNW,346,4.0,4.0,59,0.00,,SCT047,0.06,VWS V14.01,2013-06-11 17:57:00,
2013-06-11 14:02:00,85.7,72.1,29.88,West,265,0.0,0.0,64,0.00,,SCT060,0.06,VWS V14.01,2013-06-11 18:02:00,
2013-06-11 14:07:00,86.1,68.6,29.88,West,261,0.0,2.0,56,0.00,,SCT060,0.06,VWS V14.01,2013-06-11 18:07:00,
2013-06-11 14:12:00,86.3,68.8,29.88,SW,221,0.0,0.0,56,0.00,,SCT060,0.06,VWS V14.01,2013-06-11 18:12:00,
2013-06-11 14:17:00,86.7,69.7,29.87,WNW,297,0.0,2.0,57,0.00,,SCT060,0.06,VWS V14.01,2013-06-11 18:17:00,
2013-06-11 14:22:00,86.7,70.2,29.87,West,280,0.0,0.0,58,0.00,,SCT060,0.06,VWS V14.01,2013-06-11 18:22:00,
2013-06-11 14:27:00,86.7,71.2,29.87,NNE,27,0.0,1.0,60,0.00,,SCT060,0.06,VWS V14.01,2013-06-11 18:27:00,
2013-06-11 14:32:00,86.7,70.7,29.87,WNW,284,0.0,1.0,59,0.00,,SCT060,0.06,VWS V14.01,2013-06-11 18:32:00,
2013-06-11 14:37:00,87.2,72.1,29.87,North,10,0.0,2.0,61,0.00,,SCT060,0.06,VWS V14.01,2013-06-11 18:37:00,
2013-06-11 14:42:00,87.2,69.6,29.87,WSW,241,0.0,0.0,56,0.00,,SCT060,0.06,VWS V14.01,2013-06-11 18:42:00,
2013-06-11 14:47:00,87.0,72.4,29.87,WSW,252,0.0,0.0,62,0.00,,BKN070,0.06,VWS V14.01,2013-06-11 18:47:00,
2013-06-11 14:52:00,87.0,68.9,29.87,WNW,286,0.0,0.0,55,0.00,,BKN070,0.06,VWS V14.01,2013-06-11 18:52:00,
2013-06-11 14:57:00,86.7,71.2,29.87,West,275,0.0,0.0,60,0.00,,BKN070,0.06,VWS V14.01,2013-06-11 18:57:00,
2013-06-11 15:02:00,86.7,72.1,29.87,East,86,0.0,0.0,62,0.00,,BKN070,0.06,VWS V14.01,2013-06-11 19:02:00,
2013-06-11 15:07:00,87.0,71.9,29.87,North,5,0.0,0.0,61,0.00,,BKN070,0.06,VWS V14.01,2013-06-11 19:07:00,
2013-06-11 15:12:00,87.6,70.0,29.87,WSW,254,0.0,0.0,56,0.00,,BKN070,0.06,VWS V14.01,2013-06-11 19:12:00,
2013-06-11 15:17:00,88.0,69.8,29.86,NW,322,0.0,0.0,55,0.00,,BKN070,0.06,VWS V14.01,2013-06-11 19:17:00,
2013-06-11 15:22:00,88.2,70.0,29.86,NW,309,2.0,4.0,55,0.00,,BKN070,0.06,VWS V14.01,2013-06-11 19:22:00,
2013-06-11 15:27:00,88.0,70.3,29.86,NNW,344,0.0,0.0,56,0.00,,BKN070,0.06,VWS V14.01,2013-06-11 19:27:00,
2013-06-11 15:32:00,87.8,69.6,29.86,WSW,242,0.0,2.0,55,0.00,,BKN070,0.06,VWS V14.01,2013-06-11 19:32:00,
2013-06-11 15:37:00,87.6,70.0,29.86,NW,325,0.0,1.0,56,0.00,,BKN070,0.06,VWS V14.01,2013-06-11 19:37:00,
2013-06-11 15:42:00,88.0,69.3,29.86,NW,325,0.0,1.0,54,0.00,,BKN070,0.06,VWS V14.01,2013-06-11 19:42:00,
2013-06-11 15:47:00,88.0,68.2,29.86,WSW,251,0.0,3.0,52,0.00,,FEW060,0.06,VWS V14.01,2013-06-11 19:47:00,
2013-06-11 15:52:00,88.2,68.9,29.86,West,267,3.0,3.0,53,0.00,,FEW060,0.06,VWS V14.01,2013-06-11 19:52:00,
2013-06-11 15:57:00,88.2,70.0,29.86,NNW,329,0.0,0.0,55,0.00,,FEW060,0.06,VWS V14.01,2013-06-11 19:57:00,
2013-06-11 16:02:00,88.2,70.0,29.86,NW,313,0.0,5.0,55,0.00,,FEW060,0.06,VWS V14.01,2013-06-11 20:02:00,
2013-06-11 16:07:00,88.4,68.6,29.86,SSW,208,0.0,2.0,52,0.00,,FEW060,0.06,VWS V14.01,2013-06-11 20:07:00,
2013-06-11 16:12:00,88.0,68.7,29.86,WSW,252,4.0,4.0,53,0.00,,FEW060,0.06,VWS V14.01,2013-06-11 20:12:00,
2013-06-11 16:17:00,88.0,67.6,29.85,NW,320,3.0,3.0,51,0.00,,FEW060,0.06,VWS V14.01,2013-06-11 20:17:00,
2013-06-11 16:22:00,88.2,67.8,29.85,South,173,0.0,10.0,51,0.00,,FEW060,0.06,VWS V14.01,2013-06-11 20:22:00,
2013-06-11 16:27:00,88.4,68.6,29.85,NNW,328,0.0,0.0,52,0.00,,FEW060,0.06,VWS V14.01,2013-06-11 20:27:00,
2013-06-11 16:32:00,88.2,67.2,29.85,SW,214,0.0,1.0,50,0.00,,FEW060,0.06,VWS V14.01,2013-06-11 20:32:00,
2013-06-11 16:37:00,88.2,67.8,29.85,SE,145,0.0,4.0,51,0.00,,FEW060,0.06,VWS V14.01,2013-06-11 20:37:00,
2013-06-11 16:42:00,87.6,69.4,29.85,SE,131,0.0,1.0,55,0.00,,FEW060,0.06,VWS V14.01,2013-06-11 20:42:00,
2013-06-11 16:47:00,87.4,69.8,29.85,WSW,245,0.0,0.0,56,0.00,,CLR,0.06,VWS V14.01,2013-06-11 20:47:00,
2013-06-11 16:52:00,87.4,67.1,29.85,West,275,0.0,1.0,51,0.00,,CLR,0.06,VWS V14.01,2013-06-11 20:52:00,
2013-06-11 16:57:00,87.4,67.1,29.85,SE,142,0.0,1.0,51,0.00,,CLR,0.06,VWS V14.01,2013-06-11 20:57:00,
2013-06-11 17:02:00,87.4,68.2,29.85,WNW,284,0.0,2.0,53,0.00,,CLR,0.06,VWS V14.01,2013-06-11 21:02:00,
2013-06-11 17:07:00,87.6,67.2,29.85,NNW,327,3.0,3.0,51,0.00,,CLR,0.06,VWS V14.01,2013-06-11 21:07:00,
2013-06-11 17:12:00,87.6,67.2,29.85,WSW,246,0.0,1.0,51,0.00,,CLR,0.06,VWS V14.01,2013-06-11 21:12:00,
2013-06-11 17:17:00,87.6,70.5,29.85,NW,326,0.0,1.0,57,0.00,,CLR,0.06,VWS V14.01,2013-06-11 21:17:00,
2013-06-11 17:22:00,87.4,69.8,29.85,WSW,253,0.0,0.0,56,0.00,,CLR,0.06,VWS V14.01,2013-06-11 21:22:00,
2013-06-11 17:27:00,87.2,68.5,29.85,WSW,254,0.0,0.0,54,0.00,,CLR,0.06,VWS V14.01,2013-06-11 21:27:00,
2013-06-11 17:32:00,87.2,69.1,29.85,WSW,238,0.0,0.0,55,0.00,,CLR,0.06,VWS V14.01,2013-06-11 21:32:00,
2013-06-11 17:37:00,87.0,66.7,29.85,SW,215,0.0,1.0,51,0.00,,CLR,0.06,VWS V14.01,2013-06-11 21:37:00,
2013-06-11 17:42:00,87.0,67.3,29.85,West,281,0.0,1.0,52,0.00,,CLR,0.06,VWS V14.01,2013-06-11 21:42:00,
2013-06-11 17:47:00,87.0,67.3,29.84,NNW,331,0.0,0.0,52,0.00,,CLR,0.06,VWS V14.01,2013-06-11 21:47:00,
2013-06-11 17:52:00,87.0,67.3,29.84,NNW,331,0.0,0.0,52,0.00,,CLR,0.06,VWS V14.01,2013-06-11 21:52:00,
2013-06-11 17:57:00,87.0,66.7,29.84,WNW,284,0.0,1.0,51,0.00,,CLR,0.06,VWS V14.01,2013-06-11 21:57:00,
2013-06-11 18:02:00,87.0,67.8,29.84,WSW,238,0.0,0.0,53,0.00,,CLR,0.06,VWS V14.01,2013-06-11 22:02:00,
2013-06-11 18:07:00,87.2,67.4,29.84,WSW,257,0.0,0.0,52,0.00,,CLR,0.06,VWS V14.01,2013-06-11 22:07:00,
2013-06-11 18:12:00,87.2,67.4,29.84,West,281,0.0,0.0,52,0.00,,CLR,0.06,VWS V14.01,2013-06-11 22:12:00,
2013-06-11 18:17:00,87.0,67.3,29.84,SW,230,0.0,1.0,52,0.00,,CLR,0.06,VWS V14.01,2013-06-11 22:17:00,
2013-06-11 18:22:00,87.0,68.4,29.84,WNW,299,0.0,0.0,54,0.00,,CLR,0.06,VWS V14.01,2013-06-11 22:22:00,
2013-06-11 18:27:00,86.7,67.0,29.84,WSW,252,0.0,0.0,52,0.00,,CLR,0.06,VWS V14.01,2013-06-11 22:27:00,
2013-06-11 18:32:00,86.7,69.1,29.84,WSW,252,0.0,0.0,56,0.00,,CLR,0.06,VWS V14.01,2013-06-11 22:32:00,
2013-06-11 18:37:00,86.5,70.0,29.84,WSW,247,0.0,0.0,58,0.00,,CLR,0.06,VWS V14.01,2013-06-11 22:37:00,
2013-06-11 18:42:00,86.3,70.3,29.84,WSW,247,0.0,0.0,59,0.00,,CLR,0.06,VWS V14.01,2013-06-11 22:42:00,
2013-06-11 18:47:00,86.1,68.1,29.84,South,180,0.0,0.0,55,0.00,,CLR,0.06,VWS V14.01,2013-06-11 22:47:00,
2013-06-11 18:52:00,86.1,70.1,29.84,South,187,0.0,0.0,59,0.00,,CLR,0.06,VWS V14.01,2013-06-11 22:52:00,
2013-06-11 18:57:00,85.7,70.2,29.84,South,187,0.0,0.0,60,0.00,,CLR,0.06,VWS V14.01,2013-06-11 22:57:00,
2013-06-11 19:02:00,85.1,72.0,29.84,WSW,256,0.0,0.0,65,0.00,,CLR,0.06,VWS V14.01,2013-06-11 23:02:00,
2013-06-11 19:07:00,84.7,68.3,29.84,NNE,32,0.0,0.0,58,0.00,,CLR,0.06,VWS V14.01,2013-06-11 23:07:00,
2013-06-11 19:12:00,84.5,68.6,29.84,NW,307,0.0,0.0,59,0.00,,CLR,0.06,VWS V14.01,2013-06-11 23:12:00,
2013-06-11 19:17:00,84.3,70.3,29.84,West,271,0.0,0.0,63,0.00,,CLR,0.06,VWS V14.01,2013-06-11 23:17:00,
2013-06-11 19:22:00,84.1,68.7,29.84,West,271,0.0,0.0,60,0.00,,CLR,0.06,VWS V14.01,2013-06-11 23:22:00,
2013-06-11 19:27:00,84.0,70.5,29.84,WNW,285,0.0,0.0,64,0.00,,CLR,0.06,VWS V14.01,2013-06-11 23:27:00,
2013-06-11 19:32:00,83.8,69.9,29.85,WNW,290,0.0,0.0,63,0.00,,CLR,0.06,VWS V14.01,2013-06-11 23:32:00,
2013-06-11 19:37:00,83.4,70.4,29.85,WNW,290,0.0,0.0,65,0.00,,CLR,0.06,VWS V14.01,2013-06-11 23:37:00,
2013-06-11 19:42:00,82.6,70.1,29.85,WNW,290,0.0,0.0,66,0.00,,CLR,0.06,VWS V14.01,2013-06-11 23:42:00,
2013-06-11 19:47:00,81.8,70.2,29.85,WNW,290,0.0,0.0,68,0.00,,FEW060,0.06,VWS V14.01,2013-06-11 23:47:00,
2013-06-11 19:52:00,81.2,70.1,29.85,WNW,290,0.0,0.0,69,0.00,,FEW060,0.06,VWS V14.01,2013-06-11 23:52:00,
2013-06-11 19:57:00,80.9,70.2,29.85,WNW,290,0.0,0.0,70,0.00,,FEW060,0.06,VWS V14.01,2013-06-11 23:57:00,
2013-06-11 20:02:00,80.3,69.6,29.85,WNW,290,0.0,0.0,70,0.00,,FEW060,0.06,VWS V14.01,2013-06-12 00:02:00,
2013-06-11 20:07:00,79.9,70.1,29.85,WNW,290,0.0,0.0,72,0.00,,FEW060,0.06,VWS V14.01,2013-06-12 00:07:00,
2013-06-11 20:12:00,79.6,69.8,29.85,WNW,290,0.0,0.0,72,0.00,,FEW060,0.06,VWS V14.01,2013-06-12 00:12:00,
2013-06-11 20:17:00,79.2,69.8,29.85,WNW,290,0.0,0.0,73,0.00,,FEW060,0.06,VWS V14.01,2013-06-12 00:17:00,
2013-06-11 20:22:00,79.0,69.2,29.85,WNW,290,0.0,0.0,72,0.00,,FEW060,0.06,VWS V14.01,2013-06-12 00:22:00,
2013-06-11 20:27:00,78.8,69.0,29.85,WNW,290,0.0,0.0,72,0.00,,FEW060,0.06,VWS V14.01,2013-06-12 00:27:00,
2013-06-11 20:32:00,78.5,69.1,29.85,WNW,290,0.0,0.0,73,0.00,,FEW060,0.06,VWS V14.01,2013-06-12 00:32:00,
2013-06-11 20:37:00,78.1,69.1,29.85,WNW,290,0.0,0.0,74,0.00,,FEW060,0.06,VWS V14.01,2013-06-12 00:37:00,
2013-06-11 20:42:00,77.6,68.7,29.85,WNW,290,0.0,0.0,74,0.00,,FEW060,0.06,VWS V14.01,2013-06-12 00:42:00,
2013-06-11 20:47:00,77.2,69.1,29.85,WNW,290,0.0,0.0,76,0.00,,FEW060,0.06,VWS V14.01,2013-06-12 00:47:00,
2013-06-11 20:52:00,77.0,69.2,29.85,WNW,290,0.0,0.0,77,0.00,,FEW060,0.06,VWS V14.01,2013-06-12 00:52:00,
2013-06-11 20:57:00,76.8,69.8,29.85,WNW,290,0.0,0.0,79,0.00,,FEW060,0.06,VWS V14.01,2013-06-12 00:57:00,
2013-06-11 21:02:00,76.7,70.1,29.86,WNW,290,0.0,0.0,80,0.00,,FEW060,0.06,VWS V14.01,2013-06-12 01:02:00,
2013-06-11 21:07:00,76.5,70.2,29.86,WNW,290,0.0,0.0,81,0.00,,FEW060,0.06,VWS V14.01,2013-06-12 01:07:00,
2013-06-11 21:12:00,76.3,70.4,29.86,WNW,290,0.0,0.0,82,0.00,,FEW060,0.06,VWS V14.01,2013-06-12 01:12:00,
2013-06-11 21:17:00,76.1,70.2,29.86,WNW,290,0.0,0.0,82,0.00,,FEW060,0.06,VWS V14.01,2013-06-12 01:17:00,
2013-06-11 21:22:00,76.0,70.8,29.86,WNW,290,0.0,0.0,84,0.00,,FEW060,0.06,VWS V14.01,2013-06-12 01:22:00,
2013-06-11 21:27:00,75.8,70.6,29.86,WNW,290,0.0,0.0,84,0.00,,FEW060,0.06,VWS V14.01,2013-06-12 01:27:00,
2013-06-11 21:32:00,75.6,70.1,29.86,WNW,290,0.0,0.0,83,0.00,,FEW060,0.06,VWS V14.01,2013-06-12 01:32:00,
2013-06-11 21:37:00,75.3,69.8,29.86,WNW,290,0.0,0.0,83,0.00,,FEW060,0.06,VWS V14.01,2013-06-12 01:37:00,
2013-06-11 21:42:00,75.1,69.6,29.86,WNW,290,0.0,0.0,83,0.00,,FEW060,0.06,VWS V14.01,2013-06-12 01:42:00,
2013-06-11 21:47:00,74.9,69.4,29.87,WNW,290,0.0,0.0,83,0.00,,CLR,0.06,VWS V14.01,2013-06-12 01:47:00,
2013-06-11 21:52:00,74.7,69.2,29.87,WNW,290,0.0,0.0,83,0.00,,CLR,0.06,VWS V14.01,2013-06-12 01:52:00,
2013-06-11 21:57:00,74.7,69.9,29.87,WNW,290,0.0,0.0,85,0.00,,CLR,0.06,VWS V14.01,2013-06-12 01:57:00,
2013-06-11 22:02:00,74.7,69.9,29.88,WNW,290,0.0,0.0,85,0.00,,CLR,0.06,VWS V14.01,2013-06-12 02:02:00,
2013-06-11 22:07:00,74.6,69.8,29.88,WNW,290,0.0,0.0,85,0.00,,CLR,0.06,VWS V14.01,2013-06-12 02:07:00,
2013-06-11 22:12:00,74.6,69.8,29.88,WNW,290,0.0,0.0,85,0.00,,CLR,0.06,VWS V14.01,2013-06-12 02:12:00,
2013-06-11 22:17:00,74.4,69.3,29.88,WNW,290,0.0,0.0,84,0.00,,CLR,0.06,VWS V14.01,2013-06-12 02:17:00,
2013-06-11 22:22:00,74.2,69.1,29.88,WNW,290,0.0,0.0,84,0.00,,CLR,0.06,VWS V14.01,2013-06-12 02:22:00,
2013-06-11 22:27:00,74.0,69.2,29.88,WNW,290,0.0,0.0,85,0.00,,CLR,0.06,VWS V14.01,2013-06-12 02:27:00,
2013-06-11 22:32:00,73.9,69.1,29.89,WNW,290,0.0,0.0,85,0.00,,CLR,0.06,VWS V14.01,2013-06-12 02:32:00,
2013-06-11 22:37:00,73.9,69.1,29.89,WNW,290,0.0,0.0,85,0.00,,CLR,0.06,VWS V14.01,2013-06-12 02:37:00,
2013-06-11 22:42:00,73.7,68.9,29.89,WNW,290,0.0,0.0,85,0.00,,CLR,0.06,VWS V14.01,2013-06-12 02:42:00,
2013-06-11 22:47:00,73.5,68.4,29.89,WNW,290,0.0,0.0,84,0.00,,CLR,0.06,VWS V14.01,2013-06-12 02:47:00,
2013-06-11 22:52:00,73.3,68.2,29.89,WNW,290,0.0,0.0,84,0.00,,CLR,0.06,VWS V14.01,2013-06-12 02:52:00,
2013-06-11 22:57:00,73.2,68.4,29.89,WNW,290,0.0,0.0,85,0.00,,CLR,0.06,VWS V14.01,2013-06-12 02:57:00,
2013-06-11 23:02:00,73.2,68.4,29.90,WNW,290,0.0,0.0,85,0.00,,CLR,0.06,VWS V14.01,2013-06-12 03:02:00,
2013-06-11 23:07:00,73.3,68.5,29.90,WNW,290,0.0,0.0,85,0.00,,CLR,0.06,VWS V14.01,2013-06-12 03:07:00,
2013-06-11 23:12:00,73.2,68.4,29.90,WNW,290,0.0,0.0,85,0.00,,CLR,0.06,VWS V14.01,2013-06-12 03:12:00,
2013-06-11 23:17:00,73.0,68.2,29.90,WNW,290,0.0,0.0,85,0.00,,CLR,0.06,VWS V14.01,2013-06-12 03:17:00,
2013-06-11 23:22:00,72.8,68.0,29.90,WNW,290,0.0,0.0,85,0.00,,CLR,0.06,VWS V14.01,2013-06-12 03:22:00,
2013-06-11 23:27:00,72.7,67.9,29.90,WNW,290,0.0,0.0,85,0.00,,CLR,0.06,VWS V14.01,2013-06-12 03:27:00,
2013-06-11 23:32:00,72.5,67.7,29.91,WNW,290,0.0,0.0,85,0.00,,CLR,0.06,VWS V14.01,2013-06-12 03:32:00,
2013-06-11 23:37:00,72.3,67.9,29.91,WNW,290,0.0,0.0,86,0.00,,CLR,0.06,VWS V14.01,2013-06-12 03:37:00,
2013-06-11 23:42:00,72.1,67.7,29.91,WNW,290,0.0,0.0,86,0.00,,CLR,0.06,VWS V14.01,2013-06-12 03:42:00,
2013-06-11 23:47:00,72.0,67.6,29.90,WNW,290,0.0,0.0,86,0.00,,CLR,0.06,VWS V14.01,2013-06-12 03:47:00,
2013-06-11 23:52:00,72.0,67.9,29.90,WNW,290,0.0,0.0,87,0.00,,CLR,0.06,VWS V14.01,2013-06-12 03:52:00,
2013-06-11 23:57:00,72.0,67.9,29.90,WNW,290,0.0,0.0,87,0.00,,CLR,0.06,VWS V14.01,2013-06-12 03:57:00,